地図

経路データ

SID SEASON NUMBER BASIN SUBBASIN NAME ISO_TIME NATURE LAT LON WMO_WIND WMO_PRES WMO_AGENCY TRACK_TYPE DIST2LAND LANDFALL IFLAG USA_AGENCY USA_ATCF_ID USA_LAT USA_LON USA_RECORD USA_STATUS USA_WIND USA_PRES USA_SSHS USA_R34_NE USA_R34_SE USA_R34_SW USA_R34_NW USA_R50_NE USA_R50_SE USA_R50_SW USA_R50_NW USA_R64_NE USA_R64_SE USA_R64_SW USA_R64_NW USA_POCI USA_ROCI USA_RMW USA_EYE TOKYO_LAT TOKYO_LON TOKYO_GRADE TOKYO_WIND TOKYO_PRES TOKYO_R50_DIR TOKYO_R50_LONG TOKYO_R50_SHORT TOKYO_R30_DIR TOKYO_R30_LONG TOKYO_R30_SHORT TOKYO_LAND CMA_LAT CMA_LON CMA_CAT CMA_WIND CMA_PRES HKO_LAT HKO_LON HKO_CAT HKO_WIND HKO_PRES NEWDELHI_LAT NEWDELHI_LON NEWDELHI_GRADE NEWDELHI_WIND NEWDELHI_PRES NEWDELHI_CI NEWDELHI_DP NEWDELHI_POCI REUNION_LAT REUNION_LON REUNION_TYPE REUNION_WIND REUNION_PRES REUNION_TNUM REUNION_CI REUNION_RMW REUNION_R34_NE REUNION_R34_SE REUNION_R34_SW REUNION_R34_NW REUNION_R50_NE REUNION_R50_SE REUNION_R50_SW REUNION_R50_NW REUNION_R64_NE REUNION_R64_SE REUNION_R64_SW REUNION_R64_NW BOM_LAT BOM_LON BOM_TYPE BOM_WIND BOM_PRES BOM_TNUM BOM_CI BOM_RMW BOM_R34_NE BOM_R34_SE BOM_R34_SW BOM_R34_NW BOM_R50_NE BOM_R50_SE BOM_R50_SW BOM_R50_NW BOM_R64_NE BOM_R64_SE BOM_R64_SW BOM_R64_NW BOM_ROCI BOM_POCI BOM_EYE BOM_POS_METHOD BOM_PRES_METHOD NADI_LAT NADI_LON NADI_CAT NADI_WIND NADI_PRES WELLINGTON_LAT WELLINGTON_LON WELLINGTON_WIND WELLINGTON_PRES DS824_LAT DS824_LON DS824_STAGE DS824_WIND DS824_PRES TD9636_LAT TD9636_LON TD9636_STAGE TD9636_WIND TD9636_PRES TD9635_LAT TD9635_LON TD9635_WIND TD9635_PRES TD9635_ROCI NEUMANN_LAT NEUMANN_LON NEUMANN_CLASS NEUMANN_WIND NEUMANN_PRES MLC_LAT MLC_LON MLC_CLASS MLC_WIND MLC_PRES USA_GUST BOM_GUST BOM_GUST_PER REUNION_GUST REUNION_GUST_PER USA_SEAHGT USA_SEARAD_NE USA_SEARAD_SE USA_SEARAD_SW USA_SEARAD_NW STORM_SPEED STORM_DIR
1898269N20276 1898 45 NA CS NOT_NAMED 1898-09-25 18:00:00 TS 20.5000 -84.5000 30 hurdat_atl main 145 124 O_____________ hurdat_atl AL081898 20.5000 -84.5000 TD 30 -1 6 43
1898269N20276 1898 45 NA CS NOT_NAMED 1898-09-25 21:00:00 TS 20.7325 -84.2676 main 124 100 P_____________ AL081898 20.7325 -84.2676 TD 30 -1 7 43
1898269N20276 1898 45 NA CS NOT_NAMED 1898-09-26 00:00:00 TS 21.0000 -84.0000 30 hurdat_atl main 100 73 O_____________ hurdat_atl AL081898 21.0000 -84.0000 TD 30 -1 8 43
1898269N20276 1898 45 NA CS NOT_NAMED 1898-09-26 03:00:00 TS 21.3275 -83.6724 main 73 23 P_____________ AL081898 21.3275 -83.6724 TD 30 -1 10 43
1898269N20276 1898 45 NA CS NOT_NAMED 1898-09-26 06:00:00 TS 21.7000 -83.3000 30 hurdat_atl main 23 10 O_____________ hurdat_atl AL081898 21.7000 -83.3000 TD 30 -1 10 42
1898269N20276 1898 45 NA CS NOT_NAMED 1898-09-26 09:00:00 TS 22.0772 -82.9369 main 33 22 P_____________ AL081898 22.0772 -82.9369 TD 30 -1 11 43
1898269N20276 1898 45 NA CS NOT_NAMED 1898-09-26 12:00:00 TS 22.5000 -82.5000 30 1008 hurdat_atl main 22 0 O_____________ hurdat_atl AL081898 22.5000 -82.5000 TD 30 1008 -1 13 45
1898269N20276 1898 45 NA NA NOT_NAMED 1898-09-26 15:00:00 TS 22.9850 -81.9374 main 0 0 P_____________ AL081898 22.9850 -81.9374 TD 30 -1 15 48
1898269N20276 1898 45 NA NA NOT_NAMED 1898-09-26 18:00:00 TS 23.5000 -81.3000 30 hurdat_atl main 44 44 O_____________ hurdat_atl AL081898 23.5000 -81.3000 TD 30 -1 16 50
1898269N20276 1898 45 NA NA NOT_NAMED 1898-09-26 21:00:00 TS 24.0001 -80.6349 main 111 78 P_____________ AL081898 24.0001 -80.6349 TD 32 -1 16 50
1898269N20276 1898 45 NA NA NOT_NAMED 1898-09-27 00:00:00 TS 24.5000 -80.0000 35 hurdat_atl main 78 75 O_____________ hurdat_atl AL081898 24.5000 -80.0000 TS 35 0 15 47
1898269N20276 1898 45 NA NA NOT_NAMED 1898-09-27 03:00:00 TS 24.9996 -79.4768 main 91 91 P_____________ AL081898 24.9996 -79.4768 TS 37 0 14 42
1898269N20276 1898 45 NA NA NOT_NAMED 1898-09-27 06:00:00 TS 25.5000 -79.0000 40 hurdat_atl main 100 97 O_____________ hurdat_atl AL081898 25.5000 -79.0000 TS 40 0 14 41
1898269N20276 1898 45 NA NA NOT_NAMED 1898-09-27 09:00:00 TS 26.0375 -78.4852 main 108 108 P_____________ AL081898 26.0375 -78.4852 TS 42 0 13 42
1898269N20276 1898 45 NA NA NOT_NAMED 1898-09-27 12:00:00 TS 26.5000 -78.0000 45 hurdat_atl main 156 156 O_____________ hurdat_atl AL081898 26.5000 -78.0000 TS 45 0 11 47
1898269N20276 1898 45 NA NA NOT_NAMED 1898-09-27 15:00:00 TS 26.7872 -77.5843 main 194 194 P_____________ AL081898 26.7872 -77.5843 TS 45 0 9 55
1898269N20276 1898 45 NA NA NOT_NAMED 1898-09-27 18:00:00 TS 27.0000 -77.2000 45 hurdat_atl main 226 226 O_____________ hurdat_atl AL081898 27.0000 -77.2000 TS 45 0 8 57
1898269N20276 1898 45 NA NA NOT_NAMED 1898-09-27 21:00:00 TS 27.2499 -76.7924 main 263 263 P_____________ AL081898 27.2499 -76.7924 TS 45 0 9 55
1898269N20276 1898 45 NA NA NOT_NAMED 1898-09-28 00:00:00 TS 27.5000 -76.4000 45 hurdat_atl main 311 311 O_____________ hurdat_atl AL081898 27.5000 -76.4000 TS 45 0 8 53
1898269N20276 1898 45 NA NA NOT_NAMED 1898-09-28 03:00:00 TS 27.7499 -76.0423 main 352 352 P_____________ AL081898 27.7499 -76.0423 TS 42 0 8 51
1898269N20276 1898 45 NA NA NOT_NAMED 1898-09-28 06:00:00 TS 28.0000 -75.7000 40 hurdat_atl main 396 396 O_____________ hurdat_atl AL081898 28.0000 -75.7000 TS 40 0 8 51
1898269N20276 1898 45 NA NA NOT_NAMED 1898-09-28 09:00:00 TS 28.2726 -75.3127 main 446 446 P_____________ AL081898 28.2726 -75.3127 TS 37 0 8 51
1898269N20276 1898 45 NA NA NOT_NAMED 1898-09-28 12:00:00 TS 28.5000 -75.0000 35 hurdat_atl main 482 482 O_____________ hurdat_atl AL081898 28.5000 -75.0000 TS 35 0 5 49
1898269N20276 1898 45 NA NA NOT_NAMED 1898-09-28 15:00:00 TS 28.6299 -74.8498 main 503 503 P_____________ AL081898 28.6299 -74.8498 TS 35 0 3 42
1898269N20276 1898 45 NA NA NOT_NAMED 1898-09-28 18:00:00 TS 28.7000 -74.8000 35 hurdat_atl main 511 O_____________ hurdat_atl AL081898 28.7000 -74.8000 TS 35 0 2 28

IBTrACS Databaseについて

本データベースは、米国NOAAが公開する1842年以降の世界の熱帯低気圧のベストトラックデータアーカイブInternational Best Track Archive for Climate Stewardship (IBTrACS)を、ウェブで閲覧しやすい形式に変換したものです。

最終更新日:2021-12-06